Latest Weather Observations for Hughenden

IDQ60801

Issued at 12:32 pm EST Thursday 23 February 2017 (issued every 30 minutes, with the page automatically refreshed every 10 minutes)

About weather observations | Map of weather stations | Latest weather observations for QLD | Other Formats
Station Details ID: 030022 Name: HUGHENDEN AIRPORT Lat: -20.82 Lon: 144.23 Height: 316.4 m
Data from the previous 72 hours. | See also: Recent months at Hughenden
Date/Time
EST
Temp
°C
App
Temp
°C
Dew
Point
°C
Rel
Hum
%
Delta-T
°C
Wind Press
QNH
hPa
Press
MSL
hPa
Rain since
9am
mm
Dir  Spd
km/h
Gust
km/h
Spd
kts
Gust
kts
23/12:00pm 32.2 30.9 17.3 41 9.6 E 20 32 11 17 1015.1 1012.8 0.0
23/11:30am 31.7 31.7 19.0 47 8.4 E 17 26 9 14 1015.5 1013.2 0.0
23/11:00am 30.8 31.1 18.8 48 7.9 ESE 15 20 8 11 1015.8 1013.5 0.0
23/10:30am 30.3 30.7 19.0 50 7.4 ENE 15 20 8 11 1016.1 1013.8 0.0
23/10:00am 30.3 31.0 19.6 52 7.1 E 15 22 8 12 1016.4 1014.2 0.0
23/09:30am 29.8 31.2 19.5 54 6.8 ENE 11 17 6 9 1016.4 1014.2 0.0
23/09:00am 28.8 29.0 19.4 56 6.2 ENE 17 22 9 12 1016.2 1013.9 0.0
23/08:30am 28.3 28.7 19.8 60 5.6 ENE 17 24 9 13 1016.1 1013.8 0.0
23/08:00am 27.4 27.9 19.2 61 5.4 ENE 15 20 8 11 1015.9 1013.6 0.0
23/07:30am 26.9 28.8 19.8 65 4.7 ENE 9 13 5 7 1015.6 1013.3 0.0
23/07:00am 25.5 28.4 20.7 75 3.2 ESE 6 7 3 4 1015.3 1013.0 0.0
23/06:30am 24.2 26.8 20.5 80 2.4 ESE 7 9 4 5 1014.9 1012.6 0.0
23/06:00am 24.2 26.4 20.5 80 2.4 E 9 9 5 5 1014.6 1012.3 0.0
23/05:30am 24.4 27.0 20.5 79 2.6 ESE 7 9 4 5 1014.4 1012.1 0.0
23/05:00am 24.5 26.2 20.2 77 2.8 ESE 11 13 6 7 1014.1 1011.8 0.0
23/04:30am 24.6 26.5 20.5 78 2.7 ESE 11 15 6 8 1014.0 1011.7 0.0
23/04:00am 24.3 26.9 21.2 83 2.1 SE 9 13 5 7 1013.7 1011.4 0.0
23/03:30am 23.9 26.8 21.0 84 1.9 SE 7 9 4 5 1013.8 1011.5 0.0
23/03:00am 23.8 27.5 20.7 83 2.0 SSE 2 6 1 3 1013.8 1011.5 0.0
23/02:30am 23.9 27.0 21.0 84 1.9 SE 6 7 3 4 1014.0 1011.7 0.0
23/02:00am 24.0 28.2 20.9 83 2.1 CALM 0 9 0 5 1014.1 1011.8 0.0
23/01:30am 24.5 28.6 20.8 80 2.5 CALM 0 4 0 2 1014.4 1012.1 0.0
23/01:00am 24.6 27.6 20.9 80 2.5 NW 6 7 3 4 1014.5 1012.2 0.0
23/12:30am 24.7 27.7 20.8 79 2.6 W 6 9 3 5 1014.5 1012.2 0.0
23/12:00am 25.0 27.3 20.7 77 2.8 W 9 13 5 7 1014.9 1012.6 0.0
 
Date/Time
EST
Temp
°C
App
Temp
°C
Dew
Point
°C
Rel
Hum
%
Delta-T
°C
Wind Press
QNH
hPa
Press
MSL
hPa
Rain since
9am
mm
Dir  Spd
km/h
Gust
km/h
Spd
kts
Gust
kts
22/11:30pm 25.5 26.3 20.7 75 3.2 NW 17 22 9 12 1015.0 1012.7 0.0
22/11:00pm 25.9 28.1 21.1 75 3.2 WNW 11 15 6 8 1014.9 1012.6 0.0
22/10:30pm 25.9 28.3 20.9 74 3.3 W 9 11 5 6 1014.5 1012.2 0.0
22/10:00pm 26.0 29.8 21.0 74 3.3 SW 2 6 1 3 1014.4 1012.1 0.0
22/09:30pm 25.8 28.9 21.0 75 3.2 WSW 6 11 3 6 1014.1 1011.8 0.0
22/09:00pm 25.7 28.6 20.7 74 3.3 WSW 6 7 3 4 1013.6 1011.3 0.0
22/08:30pm 25.8 28.2 20.1 71 3.8 WNW 7 9 4 5 1013.2 1010.9 0.0
22/08:00pm 25.8 27.9 20.1 71 3.8 W 9 13 5 7 1012.6 1010.3 0.0
22/07:30pm 26.3 26.4 19.9 68 4.2 W 19 26 10 14 1012.2 1009.9 0.0
22/07:00pm 27.8 29.0 19.1 59 5.7 NW 11 22 6 12 1011.9 1009.6 0.0
22/06:30pm 31.5 31.6 17.4 43 9.1 E 13 20 7 11 1011.1 1008.8 0.0
22/06:00pm 31.8 31.3 16.9 40 9.6 E 15 22 8 12 1010.8 1008.5 0.0
22/05:30pm 31.9 31.2 17.4 42 9.4 E 17 24 9 13 1010.5 1008.1 0.0
22/05:00pm 32.5 30.8 17.2 40 9.9 E 22 37 12 20 1010.1 1007.7 0.0
22/04:30pm 33.6 31.8 15.6 34 11.4 ENE 19 24 10 13 1010.3 1007.9 0.0
22/04:00pm 33.4 31.0 14.5 32 11.8 NE 20 32 11 17 1010.4 1008.0 0.0
22/03:30pm 35.0 33.1 15.3 30 12.5 ENE 19 28 10 15 1010.2 1007.8 0.0
22/03:00pm 34.6 34.1 16.9 35 11.4 ENE 15 20 8 11 1010.7 1008.3 0.0
22/02:30pm 33.5 32.5 15.5 34 11.4 ENE 15 26 8 14 1011.2 1008.9 0.0
22/02:00pm 33.9 34.5 17.6 38 10.6 ENE 11 20 6 11 1011.6 1009.3 0.0
22/01:30pm 33.7 33.6 17.8 38 10.4 NNE 15 24 8 13 1012.0 1009.7 0.0
22/01:00pm 32.7 31.8 16.9 38 10.2 NE 17 24 9 13 1012.4 1010.1 0.0
22/12:30pm 32.8 32.1 18.2 42 9.6 NE 19 26 10 14 1012.9 1010.6 0.0
22/12:00pm 31.8 29.8 16.5 39 9.7 NE 22 30 12 16 1013.2 1010.9 0.0
22/11:30am 31.5 29.6 16.6 40 9.5 NE 22 33 12 18 1013.5 1011.1 0.0
22/11:00am 30.4 30.4 19.7 52 7.1 E 19 28 10 15 1013.8 1011.5 0.0
22/10:30am 28.8 28.5 19.1 55 6.4 E 19 24 10 13 1014.1 1011.8 0.0
22/10:00am 27.0 26.5 18.6 60 5.4 E 19 24 10 13 1014.3 1012.0 0.0
22/09:30am 26.1 26.7 19.5 67 4.3 E 15 20 8 11 1014.6 1012.3 0.0
22/09:00am 25.4 26.2 19.8 71 3.7 E 15 19 8 10 1014.5 1012.2 12.8
22/08:30am 24.5 25.2 19.6 74 3.2 E 15 20 8 11 1014.2 1011.9 12.8
22/08:00am 23.7 25.5 19.6 78 2.7 ESE 9 13 5 7 1014.0 1011.7 12.8
22/07:30am 22.9 23.9 19.5 81 2.2 E 13 17 7 9 1013.7 1011.4 12.8
22/07:00am 22.5 24.7 19.5 83 1.9 ESE 7 11 4 6 1013.5 1011.1 12.8
22/06:30am 22.6 25.4 19.6 83 1.9 SE 4 7 2 4 1013.1 1010.8 12.8
22/06:00am 22.5 24.5 19.1 81 2.2 SE 7 11 4 6 1012.7 1010.4 12.8
22/05:30am 22.3 23.4 18.9 81 2.2 NE 11 15 6 8 1012.6 1010.3 12.8
22/05:00am 22.2 22.5 18.8 81 2.2 ENE 15 20 8 11 1012.1 1009.8 12.8
22/04:30am 22.3 22.6 18.7 80 2.3 ENE 15 20 8 11 1012.1 1009.8 12.6
22/04:00am 21.8 23.0 19.0 84 1.8 E 11 13 6 7 1012.3 1010.0 12.6
22/03:30am 21.8 23.4 19.2 85 1.7 ENE 9 11 5 6 1012.7 1010.4 12.6
22/03:00am 21.7 23.9 19.1 85 1.7 NNE 6 7 3 4 1013.8 1011.5 12.6
22/02:30am 21.7 23.2 18.9 84 1.8 N 9 13 5 7 1014.0 1011.7 12.6
22/02:00am 21.6 22.0 19.0 85 1.7 NNE 15 20 8 11 1014.4 1012.1 12.4
22/01:30am 21.6 21.6 19.0 85 1.7 NNE 17 24 9 13 1014.9 1012.6 12.2
22/01:00am 21.0 20.8 18.4 85 1.6 NNE 17 24 9 13 1015.8 1013.5 11.6
22/12:30am 21.4 21.3 18.8 85 1.7 NNE 17 22 9 12 1016.5 1014.3 9.8
22/12:00am 21.3 22.2 19.2 88 1.3 NNE 13 17 7 9 1017.0 1014.7 7.8
 
Date/Time
EST
Temp
°C
App
Temp
°C
Dew
Point
°C
Rel
Hum
%
Delta-T
°C
Wind Press
QNH
hPa
Press
MSL
hPa
Rain since
9am
mm
Dir  Spd
km/h
Gust
km/h
Spd
kts
Gust
kts
21/11:30pm 21.3 22.0 18.9 86 1.5 N 13 19 7 10 1016.6 1014.4 3.8
21/11:00pm 21.9 20.5 18.7 82 2.0 N 24 33 13 18 1016.9 1014.6 0.8
21/10:30pm 23.0 22.3 18.7 77 2.7 N 20 28 11 15 1015.9 1013.6 0.4
21/10:00pm 24.3 22.6 17.1 64 4.5 NW 22 30 12 16 1015.0 1012.7 0.0
21/09:30pm 25.1 25.7 17.8 64 4.6 NW 11 15 6 8 1014.4 1012.1 0.0
21/09:00pm 26.5 26.1 16.1 52 6.5 N 13 17 7 9 1014.1 1011.8 0.0
21/08:30pm 28.0 28.6 14.3 43 8.3 S 4 7 2 4 1012.9 1010.6 0.0
21/08:00pm 29.2 27.6 11.7 34 10.3 SSE 11 17 6 9 1012.2 1009.9 0.0
21/07:30pm 29.3 27.5 10.9 32 10.7 SSE 11 15 6 8 1012.0 1009.7 0.0
21/07:00pm 29.9 27.7 10.9 31 11.0 SSE 13 17 7 9 1011.6 1009.3 0.0
21/06:30pm 30.5 27.6 11.0 30 11.4 SSE 17 24 9 13 1011.1 1008.8 0.0
21/06:00pm 30.7 27.6 11.6 31 11.3 SSE 19 26 10 14 1010.9 1008.6 0.0
21/05:30pm 31.1 28.0 11.5 30 11.6 SSE 19 24 10 13 1010.8 1008.5 0.0
21/05:00pm 31.8 29.4 12.6 31 11.6 SSE 17 22 9 12 1010.9 1008.6 0.0
21/04:30pm 31.6 29.0 11.9 30 11.7 SE 17 26 9 14 1011.1 1008.8 0.0
21/04:00pm 31.8 29.1 11.6 29 12.0 SE 17 22 9 12 1011.1 1008.8 0.0
21/03:30pm 31.4 28.9 12.2 30 11.5 SSE 17 20 9 11 1011.5 1009.2 0.0
21/03:00pm 31.1 29.5 12.9 32 11.0 SE 13 19 7 10 1011.8 1009.5 0.0
21/02:30pm 31.0 30.2 12.8 32 10.9 SSE 9 19 5 10 1012.0 1009.7 0.0
21/02:00pm 30.5 30.4 13.3 35 10.4 SSE 6 9 3 5 1012.2 1009.9 0.0
21/01:30pm 30.1 30.0 13.4 36 10.1 E 6 11 3 6 1012.4 1010.1 0.0
21/01:00pm 29.7 29.5 13.5 37 9.8 ENE 7 11 4 6 1012.7 1010.4 0.0
21/12:30pm 29.1 29.2 11.6 33 10.2 ENE 2 7 1 4 1012.7 1010.4 0.0
21/12:00pm 28.6 27.6 13.3 39 9.2 ESE 11 19 6 10 1012.7 1010.4 0.0
21/11:30am 26.6 25.5 13.0 43 8.1 SSE 11 17 6 9 1012.9 1010.6 0.0
21/11:00am 25.6 25.8 13.1 46 7.4 S 4 9 2 5 1013.3 1011.0 0.0
21/10:30am 24.7 25.7 15.3 56 5.7 NNW 4 7 2 4 1013.9 1011.6 0.0
21/10:00am 23.8 24.3 16.6 64 4.5 N 9 15 5 8 1015.0 1012.7 0.0
21/09:30am 24.0 22.7 16.8 64 4.5 NW 19 22 10 12 1015.1 1012.8 0.0
21/09:00am 24.8 23.0 15.4 56 5.7 NW 19 26 10 14 1014.8 1012.5 0.0
21/08:30am 24.6 23.3 15.8 58 5.4 NW 17 20 9 11 1014.5 1012.2 0.0
21/08:00am 24.2 24.7 16.5 62 4.8 NNW 9 13 5 7 1014.2 1011.9 0.0
21/07:30am 23.2 24.3 17.2 69 3.8 NNW 7 9 4 5 1013.7 1011.4 0.0
21/07:00am 22.7 24.0 17.2 71 3.4 WSW 6 9 3 5 1012.9 1010.6 0.0
21/06:30am 22.7 23.9 16.9 70 3.6 SW 6 9 3 5 1012.4 1010.1 0.0
21/06:00am 23.0 24.6 16.8 68 3.9 NW 4 7 2 4 1012.0 1009.7 0.0
21/05:30am 23.4 23.1 16.4 64 4.3 W 13 19 7 10 1011.9 1009.6 0.0
21/05:00am 24.0 22.6 16.5 63 4.7 WNW 19 26 10 14 1012.2 1009.9 0.0
21/04:30am 24.8 22.7 14.6 53 6.2 W 19 26 10 14 1012.0 1009.7 0.0
21/04:00am 25.3 22.4 11.1 41 8.1 WNW 17 20 9 11 1011.9 1009.6 0.0
21/03:30am 25.0 22.5 11.2 42 7.9 WNW 15 20 8 11 1011.6 1009.3 0.0
21/03:00am 24.1 23.3 11.8 46 7.1 WSW 7 9 4 5 1011.5 1009.2 0.0
21/02:30am 24.7 24.3 12.3 46 7.2 SSE 6 9 3 5 1011.7 1009.4 0.0
21/02:00am 25.6 24.5 10.6 39 8.5 ENE 7 9 4 5 1011.8 1009.5 0.0
21/01:30am 25.8 24.7 10.8 39 8.5 NE 7 7 4 4 1012.0 1009.7 0.0
21/01:00am 26.6 25.0 8.1 31 10.1 S 6 9 3 5 1011.8 1009.5 0.0
21/12:30am 26.8 24.6 9.2 33 9.8 S 11 13 6 7 1011.7 1009.4 0.0
21/12:00am 27.2 26.5 11.3 37 9.2 SSW 6 9 3 5 1012.1 1009.8 0.0
 
Date/Time
EST
Temp
°C
App
Temp
°C
Dew
Point
°C
Rel
Hum
%
Delta-T
°C
Wind Press
QNH
hPa
Press
MSL
hPa
Rain since
9am
mm
Dir  Spd
km/h
Gust
km/h
Spd
kts
Gust
kts
20/11:30pm 26.9 27.2 13.3 43 8.1 NW 4 7 2 4 1012.1 1009.8 0.0
20/11:00pm 26.5 27.1 14.3 47 7.4 ENE 4 6 2 3 1011.6 1009.3 0.0
20/10:30pm 27.0 26.7 13.4 43 8.1 E 7 9 4 5 1011.3 1009.0 0.0
20/10:00pm 27.5 26.4 11.9 38 9.1 SSE 9 11 5 6 1011.2 1008.9 0.0
20/09:30pm 27.7 26.5 11.7 37 9.3 SSE 9 9 5 5 1011.1 1008.8 0.0
20/09:00pm 28.1 28.0 13.2 39 8.9 SSE 6 9 3 5 1011.0 1008.7 0.0
20/08:30pm 28.6 27.3 11.2 34 10.1 S 9 9 5 5 1010.7 1008.3 0.0
20/08:00pm 29.6 28.0 10.2 30 11.1 SSW 9 13 5 7 1010.4 1008.0 0.0
20/07:30pm 30.5 27.8 8.8 26 12.2 S 13 17 7 9 1009.6 1007.3 0.0
20/07:00pm 31.1 28.4 8.8 25 12.6 S 13 17 7 9 1009.3 1007.0 0.0
20/06:30pm 31.8 29.2 9.3 25 12.9 S 13 17 7 9 1008.9 1006.6 0.0
20/06:00pm 32.3 31.3 10.9 27 12.6 SE 7 9 4 5 1008.8 1006.5 0.0
20/05:30pm 32.7 30.7 10.1 25 13.1 SE 11 15 6 8 1008.6 1006.3 0.0
20/05:00pm 32.9 31.7 10.3 25 13.2 SSE 7 11 4 6 1008.6 1006.3 0.0
20/04:30pm 33.1 31.4 9.8 24 13.5 S 9 11 5 6 1008.5 1006.2 0.0
20/04:00pm 33.3 32.0 11.2 26 13.1 SSE 9 13 5 7 1008.8 1006.5 0.0
20/03:30pm 33.4 31.6 10.7 25 13.3 SSW 11 19 6 10 1009.0 1006.7 0.0
20/03:00pm 33.6 32.9 11.5 26 13.2 SSW 6 9 3 5 1009.4 1007.1 0.0
20/02:30pm 33.6 32.7 11.5 26 13.2 SSE 7 19 4 10 1009.5 1007.2 0.0
20/02:00pm 34.1 33.2 10.7 24 13.8 SSW 6 19 3 10 1009.6 1007.3 0.0
20/01:30pm 33.4 30.8 9.4 23 13.8 SE 13 20 7 11 1009.6 1007.3 0.0
20/01:00pm 32.6 29.0 10.0 25 13.1 SSE 19 26 10 14 1010.2 1007.8 0.0

Other Formats:

Comma delimited format used in spreadsheet applications
http://www.bom.gov.au/fwo/IDQ60801/IDQ60801.94343.axf

JavaScript Object Notation format (JSON) in row-major order
http://www.bom.gov.au/fwo/IDQ60801/IDQ60801.94343.json